Portada
METAR-TAF:

METAR-TAF

Aeropuertos :

Aeropuerto Civil de Amán

Amán, Jordania

latitud: 31-59N, longitud: 035-59E, altitud: 767 m

Observación

El informe se hizo hace 1 hora y 6 minutos, a las 15:00 UTC
Viento 7 kt del noroeste
Temperatura 23°C
Humedad 65%
Presión 1014 hPa
Visibilidad: 3500 m
Escasas nubes a una altura de 3000 ft
Polvo extendido

METAR: OJAM 171500Z 32007KT 3500 DU FEW030 23/16 Q1014 NOSIG

Hora: 19:06 (16:06 UTC)

Pronóstico

El informe se hizo hace 5 horas y 56 minutos, a las 10:10 UTC
Pronóstico válido del 17 a las 12 UTC al 18 a las 18 UTC
Viento 10 kt del noroeste
Visibilidad: 5000 m
Escasas nubes a una altura de 3500 ft
Nubes dispersas a una altura de 12000 ft
calima
Temporalmente
del 17 a las 12 UTC al 17 a las 20 UTC
Visibilidad: 4000 m
Polvo extendido

TAF: OJAM 171010Z 1712/1818 32010KT 5000 HZ FEW035 SCT120 TEMPO 1712/1720 4000 DU

Observaciones y pronósticos meteorológicos de más de 4000 aeropuertos (mensajes METAR y TAF).

Los puntos amarillos y rojos representan las estaciones disponibles.

Ponga el ratón en el punto deseado para ver el nombre de la estación.

Haga clic para ver las observaciones y los pronósticos meteorológicos.

Para cambiar el mapa : haga clic en los botones verdes con una cruz de color negro para hacer un zoom, en el botón verde con un guión para alejar o en las flechas verdes para mapas adyacentes.


METAR-TAF: